createdAt,value
2018-11-12T00:00:02.498Z,971.22
2018-11-12T00:01:02.541Z,971.24
2018-11-12T00:02:02.589Z,971.24
2018-11-12T00:03:02.649Z,971.25
2018-11-12T00:04:02.684Z,971.25
2018-11-12T00:05:02.726Z,971.30
2018-11-12T00:06:02.767Z,971.25
2018-11-12T00:07:02.826Z,971.31
2018-11-12T00:08:02.870Z,971.40
2018-11-12T00:09:02.903Z,971.38
2018-11-12T00:10:02.943Z,971.43
2018-11-12T00:11:02.986Z,971.44
2018-11-12T00:12:03.049Z,971.37
2018-11-12T00:13:03.078Z,971.34
2018-11-12T00:14:03.118Z,971.38
2018-11-12T00:15:03.167Z,971.39
2018-11-12T00:16:03.204Z,971.40
2018-11-12T00:17:03.273Z,971.36
2018-11-12T00:18:03.296Z,971.31
2018-11-12T00:19:03.338Z,971.27
2018-11-12T00:20:03.387Z,971.23
2018-11-12T00:21:03.429Z,971.23
2018-11-12T00:22:03.581Z,971.15
2018-11-12T00:23:03.522Z,971.19
2018-11-12T00:24:03.561Z,971.14
2018-11-12T00:25:03.609Z,971.20
2018-11-12T00:26:03.654Z,971.17
2018-11-12T00:27:03.717Z,971.15
2018-11-12T00:28:03.740Z,971.11
2018-11-12T00:29:03.840Z,971.12
2018-11-12T00:30:03.828Z,971.14
2018-11-12T00:31:03.933Z,971.13
2018-11-12T00:32:03.915Z,971.13
2018-11-12T00:33:03.958Z,971.15
2018-11-12T00:34:04.003Z,971.16
2018-11-12T00:35:04.059Z,971.21
2018-11-12T00:36:04.248Z,971.24
2018-11-12T00:37:04.161Z,971.28
2018-11-12T00:38:04.203Z,971.28
2018-11-12T00:39:04.224Z,971.27
2018-11-12T00:40:04.285Z,971.27
2018-11-12T00:41:04.313Z,971.26
2018-11-12T00:42:04.360Z,971.27
2018-11-12T00:43:04.423Z,971.28
2018-11-12T00:44:04.445Z,971.26
2018-11-12T00:45:04.489Z,971.23
2018-11-12T00:46:05.356Z,971.25
2018-11-12T00:47:04.596Z,971.24
2018-11-12T00:48:04.623Z,971.30
2018-11-12T00:49:04.669Z,971.31
2018-11-12T00:50:04.714Z,971.36
2018-11-12T00:51:04.776Z,971.37
2018-11-12T00:52:04.805Z,971.35
2018-11-12T00:53:04.843Z,971.38
2018-11-12T00:54:04.890Z,971.39
2018-11-12T00:55:04.968Z,971.42
2018-11-12T00:56:04.974Z,971.38
2018-11-12T00:57:05.018Z,971.33
2018-11-12T00:58:05.094Z,971.33
2018-11-12T00:59:05.107Z,971.35
2018-11-12T01:00:05.150Z,971.38
2018-11-12T01:01:05.216Z,971.37
2018-11-12T01:02:05.240Z,971.37
2018-11-12T01:03:05.292Z,971.36
2018-11-12T01:04:05.370Z,971.37
2018-11-12T01:05:05.370Z,971.39
2018-11-12T01:06:05.438Z,971.32
2018-11-12T01:07:05.488Z,971.23
2018-11-12T01:08:05.512Z,971.24
2018-11-12T01:09:05.549Z,971.27
2018-11-12T01:10:05.612Z,971.22
2018-11-12T01:11:05.634Z,971.23
2018-11-12T01:12:05.681Z,971.20
2018-11-12T01:13:05.726Z,971.16
2018-11-12T01:14:05.768Z,971.13
2018-11-12T01:15:05.831Z,971.13
2018-11-12T01:16:05.879Z,971.06
2018-11-12T01:17:05.898Z,971.09
2018-11-12T01:18:05.942Z,971.06
2018-11-12T01:19:05.988Z,971.02
2018-11-12T01:20:06.057Z,970.94
2018-11-12T01:21:06.087Z,970.93
2018-11-12T01:22:06.119Z,970.94
2018-11-12T01:23:06.159Z,970.92
2018-11-12T01:24:06.238Z,970.91
2018-11-12T01:25:06.256Z,970.90
2018-11-12T01:26:06.308Z,970.93
2018-11-12T01:27:06.360Z,970.99
2018-11-12T01:28:06.382Z,971.05
2018-11-12T01:29:06.461Z,970.96
2018-11-12T01:30:06.467Z,970.93
2018-11-12T01:31:06.583Z,970.94
2018-11-12T01:32:06.572Z,970.92
2018-11-12T01:33:06.601Z,970.95
2018-11-12T01:34:06.673Z,970.89
2018-11-12T01:35:06.686Z,970.88
2018-11-12T01:36:06.755Z,970.91
2018-11-12T01:37:06.782Z,970.92
2018-11-12T01:38:06.906Z,970.94
2018-11-12T01:39:06.864Z,970.95
2018-11-12T01:40:06.929Z,970.94
2018-11-12T01:41:06.974Z,971.03
2018-11-12T01:42:07.010Z,971.00
2018-11-12T01:43:07.059Z,971.02
2018-11-12T01:44:07.104Z,971.04
2018-11-12T01:45:07.142Z,971.02
2018-11-12T01:46:07.176Z,970.94
2018-11-12T01:47:07.219Z,970.94
2018-11-12T01:48:07.289Z,970.93
2018-11-12T01:49:07.298Z,970.93
2018-11-12T01:50:08.160Z,970.95
2018-11-12T01:51:07.406Z,970.94
2018-11-12T01:52:07.432Z,970.92
2018-11-12T01:53:07.474Z,970.88
2018-11-12T01:54:07.519Z,970.82
2018-11-12T01:55:07.561Z,970.86
2018-11-12T01:56:07.626Z,970.86
2018-11-12T01:57:07.646Z,970.87
2018-11-12T01:58:07.692Z,970.90
2018-11-12T01:59:07.736Z,970.96
2018-11-12T02:00:07.779Z,971.00
2018-11-12T02:01:07.848Z,970.97
2018-11-12T02:02:07.882Z,970.91
2018-11-12T02:03:07.912Z,970.93
2018-11-12T02:04:07.965Z,970.93
2018-11-12T02:05:08.003Z,970.87
2018-11-12T02:06:08.059Z,970.82
2018-11-12T02:07:08.083Z,970.82
2018-11-12T02:08:08.293Z,970.82
2018-11-12T02:09:08.235Z,970.80
2018-11-12T02:10:08.234Z,970.77
2018-11-12T02:11:08.258Z,970.80
2018-11-12T02:12:08.302Z,970.82
2018-11-12T02:13:08.369Z,970.81
2018-11-12T02:14:08.408Z,970.77
2018-11-12T02:15:08.443Z,970.80
2018-11-12T02:16:08.473Z,970.78
2018-11-12T02:17:08.518Z,970.77
2018-11-12T02:18:08.563Z,970.76
2018-11-12T02:19:08.628Z,970.76
2018-11-12T02:20:08.652Z,970.78
2018-11-12T02:21:08.694Z,970.84
2018-11-12T02:22:08.740Z,970.82
2018-11-12T02:23:08.782Z,970.80
2018-11-12T02:24:08.843Z,970.85
2018-11-12T02:25:08.875Z,970.84
2018-11-12T02:26:08.916Z,970.85
2018-11-12T02:27:08.955Z,970.83
2018-11-12T02:28:08.997Z,970.80
2018-11-12T02:29:09.089Z,970.90
2018-11-12T02:30:09.083Z,970.90
2018-11-12T02:31:09.134Z,970.91
2018-11-12T02:32:09.175Z,970.92
2018-11-12T02:33:09.244Z,970.93
2018-11-12T02:34:09.280Z,970.97
2018-11-12T02:35:09.337Z,971.01
2018-11-12T02:36:09.345Z,970.99
2018-11-12T02:37:09.393Z,970.98
2018-11-12T02:38:09.439Z,971.04
2018-11-12T02:39:09.479Z,970.98
2018-11-12T02:40:09.589Z,970.96
2018-11-12T02:41:09.568Z,970.95
2018-11-12T02:42:09.605Z,970.91
2018-11-12T02:43:09.647Z,970.88
2018-11-12T02:44:09.698Z,970.86
2018-11-12T02:45:09.753Z,970.86
2018-11-12T02:46:09.799Z,970.82
2018-11-12T02:47:09.903Z,970.80
2018-11-12T02:48:09.865Z,970.79
2018-11-12T02:49:09.912Z,970.80
2018-11-12T02:50:09.958Z,970.78
2018-11-12T02:51:10.032Z,970.81
2018-11-12T02:52:10.041Z,970.78
2018-11-12T02:53:10.080Z,970.83
2018-11-12T02:54:10.245Z,970.82
2018-11-12T02:55:10.169Z,970.88
2018-11-12T02:56:10.237Z,970.91
2018-11-12T02:57:10.263Z,970.92
2018-11-12T02:58:10.298Z,970.90
2018-11-12T02:59:10.343Z,970.86
2018-11-12T03:00:10.387Z,970.84
2018-11-12T03:01:10.456Z,970.78
2018-11-12T03:02:10.475Z,970.78
2018-11-12T03:03:10.517Z,970.76
2018-11-12T03:04:10.570Z,970.71
2018-11-12T03:05:10.607Z,970.75
2018-11-12T03:06:10.672Z,970.76
2018-11-12T03:07:10.721Z,970.78
2018-11-12T03:08:10.738Z,970.80
2018-11-12T03:09:10.780Z,970.81
2018-11-12T03:10:10.826Z,970.79
2018-11-12T03:11:10.871Z,970.82
2018-11-12T03:12:10.933Z,970.83
2018-11-12T03:13:10.958Z,970.82
2018-11-12T03:14:11.000Z,970.79
2018-11-12T03:15:11.049Z,970.78
2018-11-12T03:16:11.097Z,970.81
2018-11-12T03:17:11.186Z,970.84
2018-11-12T03:18:11.201Z,970.85
2018-11-12T03:19:11.235Z,970.82
2018-11-12T03:20:11.267Z,970.85
2018-11-12T03:21:11.320Z,970.82
2018-11-12T03:22:11.378Z,970.79
2018-11-12T03:23:11.420Z,970.76
2018-11-12T03:24:11.442Z,970.74
2018-11-12T03:25:11.491Z,970.73
2018-11-12T03:26:11.531Z,970.76
2018-11-12T03:27:11.576Z,970.77
2018-11-12T03:28:11.644Z,970.82
2018-11-12T03:29:11.678Z,970.81
2018-11-12T03:30:11.707Z,970.86
2018-11-12T03:31:11.764Z,970.86
2018-11-12T03:32:11.797Z,970.89
2018-11-12T03:33:11.861Z,970.90
2018-11-12T03:34:11.885Z,970.93
2018-11-12T03:35:11.931Z,970.96
2018-11-12T03:36:11.970Z,970.95
2018-11-12T03:37:12.018Z,971.01
2018-11-12T03:38:12.090Z,970.98
2018-11-12T03:39:12.131Z,970.92
2018-11-12T03:40:12.149Z,970.96
2018-11-12T03:41:12.197Z,970.96
2018-11-12T03:42:12.249Z,970.93
2018-11-12T03:43:12.289Z,970.92
2018-11-12T03:44:12.356Z,970.94
2018-11-12T03:45:12.381Z,970.90
2018-11-12T03:46:12.422Z,970.92
2018-11-12T03:47:12.465Z,970.94
2018-11-12T03:48:12.507Z,970.97
2018-11-12T03:49:12.614Z,971.06
2018-11-12T03:50:12.596Z,971.05
2018-11-12T03:51:12.641Z,971.01
2018-11-12T03:52:12.694Z,970.99
2018-11-12T03:53:12.731Z,970.94
2018-11-12T03:54:12.797Z,970.94
2018-11-12T03:55:12.821Z,970.95
2018-11-12T03:56:12.874Z,970.89
2018-11-12T03:57:12.911Z,970.91
2018-11-12T03:58:12.954Z,970.93
2018-11-12T03:59:13.014Z,970.94
2018-11-12T04:00:13.146Z,971.00
2018-11-12T04:01:13.089Z,970.98
2018-11-12T04:02:13.133Z,970.96
2018-11-12T04:03:13.179Z,971.03
2018-11-12T04:04:13.226Z,971.07
2018-11-12T04:05:13.288Z,971.05
2018-11-12T04:06:13.313Z,971.08
2018-11-12T04:07:13.356Z,971.11
2018-11-12T04:08:13.404Z,971.12
2018-11-12T04:09:13.443Z,971.15
2018-11-12T04:10:13.594Z,971.07
2018-11-12T04:11:13.546Z,971.05
2018-11-12T04:12:13.590Z,971.02
2018-11-12T04:13:13.652Z,970.92
2018-11-12T04:14:13.671Z,970.98
2018-11-12T04:15:13.713Z,971.00
2018-11-12T04:16:13.765Z,971.01
2018-11-12T04:17:13.805Z,971.00
2018-11-12T04:18:13.876Z,971.00
2018-11-12T04:19:13.897Z,971.00
2018-11-12T04:20:13.937Z,971.06
2018-11-12T04:21:14.008Z,971.00
2018-11-12T04:22:14.029Z,970.99
2018-11-12T04:23:14.072Z,971.01
2018-11-12T04:24:14.122Z,971.02
2018-11-12T04:25:14.160Z,971.10
2018-11-12T04:26:14.281Z,971.09
2018-11-12T04:27:14.248Z,971.11
2018-11-12T04:28:14.297Z,971.02
2018-11-12T04:29:14.339Z,971.03
2018-11-12T04:30:14.389Z,971.04
2018-11-12T04:31:14.470Z,971.06
2018-11-12T04:32:14.486Z,971.08
2018-11-12T04:33:14.605Z,971.06
2018-11-12T04:34:14.565Z,971.02
2018-11-12T04:35:14.605Z,971.04
2018-11-12T04:36:14.672Z,971.06
2018-11-12T04:37:14.727Z,971.05
2018-11-12T04:38:14.741Z,971.06
2018-11-12T04:39:14.791Z,971.11
2018-11-12T04:40:14.936Z,971.09
2018-11-12T04:41:14.881Z,971.10
2018-11-12T04:42:14.945Z,971.04
2018-11-12T04:43:15.015Z,971.06
2018-11-12T04:44:15.013Z,970.99
2018-11-12T04:45:15.060Z,970.99
2018-11-12T04:46:15.101Z,971.06
2018-11-12T04:47:15.146Z,971.07
2018-11-12T04:48:15.213Z,971.02
2018-11-12T04:49:15.236Z,971.05
2018-11-12T04:50:15.288Z,971.06
2018-11-12T04:51:15.326Z,971.05
2018-11-12T04:52:15.373Z,971.05
2018-11-12T04:53:15.436Z,971.00
2018-11-12T04:54:15.463Z,971.02
2018-11-12T04:55:15.800Z,971.06
2018-11-12T04:56:15.570Z,971.11
2018-11-12T04:57:15.598Z,971.16
2018-11-12T04:58:15.649Z,971.17
2018-11-12T04:59:15.774Z,971.11
2018-11-12T05:00:15.740Z,971.12
2018-11-12T05:01:15.784Z,971.06
2018-11-12T05:02:15.824Z,971.06
2018-11-12T05:03:15.880Z,971.01
2018-11-12T05:04:15.936Z,970.99
2018-11-12T05:05:15.958Z,971.00
2018-11-12T05:06:16.002Z,970.92
2018-11-12T05:07:16.080Z,970.83
2018-11-12T05:08:16.098Z,970.91
2018-11-12T05:09:16.162Z,970.96
2018-11-12T05:10:16.197Z,970.93
2018-11-12T05:11:16.227Z,970.95
2018-11-12T05:12:16.285Z,970.96
2018-11-12T05:13:16.316Z,971.00
2018-11-12T05:14:16.392Z,970.97
2018-11-12T05:15:16.433Z,971.02
2018-11-12T05:16:16.451Z,970.94
2018-11-12T05:17:16.496Z,970.94
2018-11-12T05:18:16.546Z,970.88
2018-11-12T05:19:16.648Z,970.85
2018-11-12T05:20:16.633Z,970.82
2018-11-12T05:21:16.694Z,970.87
2018-11-12T05:22:16.726Z,970.91
2018-11-12T05:23:16.767Z,970.91
2018-11-12T05:24:16.813Z,970.82
2018-11-12T05:25:16.859Z,970.86
2018-11-12T05:26:16.925Z,970.91
2018-11-12T05:27:16.977Z,970.82
2018-11-12T05:28:17.007Z,970.86
2018-11-12T05:29:17.041Z,970.95
2018-11-12T05:30:17.085Z,970.97
2018-11-12T05:31:17.147Z,970.98
2018-11-12T05:32:17.172Z,970.84
2018-11-12T05:33:17.242Z,970.78
2018-11-12T05:34:17.269Z,970.76
2018-11-12T05:35:17.318Z,970.73
2018-11-12T05:36:17.361Z,970.72
2018-11-12T05:37:17.397Z,970.78
2018-11-12T05:38:17.573Z,970.82
2018-11-12T05:39:17.489Z,970.86
2018-11-12T05:40:17.531Z,970.90
2018-11-12T05:41:17.580Z,970.84
2018-11-12T05:42:17.636Z,970.83
2018-11-12T05:43:17.692Z,970.84
2018-11-12T05:44:17.731Z,970.87
2018-11-12T05:45:17.760Z,970.90
2018-11-12T05:46:17.807Z,970.89
2018-11-12T05:47:17.852Z,970.84
2018-11-12T05:48:17.929Z,970.78
2018-11-12T05:49:18.005Z,970.63
2018-11-12T05:50:17.988Z,970.71
2018-11-12T05:51:18.059Z,970.77
2018-11-12T05:52:18.076Z,970.64
2018-11-12T05:53:18.151Z,970.79
2018-11-12T05:54:18.172Z,970.68
2018-11-12T05:55:18.208Z,970.70
2018-11-12T05:56:18.259Z,970.77
2018-11-12T05:57:18.298Z,970.79
2018-11-12T05:58:18.368Z,970.86
2018-11-12T05:59:18.387Z,970.84
2018-11-12T06:00:18.482Z,970.84
2018-11-12T06:01:18.498Z,970.90
2018-11-12T06:02:18.527Z,970.90
2018-11-12T06:03:18.596Z,970.96
2018-11-12T06:04:18.640Z,970.89
2018-11-12T06:05:18.699Z,970.87
2018-11-12T06:06:18.704Z,970.86
2018-11-12T06:07:18.756Z,970.78
2018-11-12T06:08:18.817Z,970.75
2018-11-12T06:09:18.858Z,970.73
2018-11-12T06:10:18.920Z,970.69
2018-11-12T06:11:18.933Z,970.72
2018-11-12T06:12:18.975Z,970.73
2018-11-12T06:13:19.021Z,970.73
2018-11-12T06:14:19.082Z,970.69
2018-11-12T06:15:19.143Z,970.61
2018-11-12T06:16:19.152Z,970.63
2018-11-12T06:17:19.199Z,970.66
2018-11-12T06:18:19.263Z,970.67
2018-11-12T06:19:19.290Z,970.65
2018-11-12T06:20:19.350Z,970.71
2018-11-12T06:21:19.383Z,970.64
2018-11-12T06:22:19.451Z,970.65
2018-11-12T06:23:19.470Z,970.62
2018-11-12T06:24:19.524Z,970.62
2018-11-12T06:25:19.559Z,970.56
2018-11-12T06:26:19.626Z,970.59
2018-11-12T06:27:19.646Z,970.58
2018-11-12T06:28:19.692Z,970.58
2018-11-12T06:29:19.758Z,970.51
2018-11-12T06:30:19.790Z,970.50
2018-11-12T06:31:19.889Z,970.51
2018-11-12T06:32:19.898Z,970.55
2018-11-12T06:33:19.918Z,970.54
2018-11-12T06:34:19.964Z,970.60
2018-11-12T06:35:20.006Z,970.50
2018-11-12T06:36:20.067Z,970.53
2018-11-12T06:37:20.138Z,970.52
2018-11-12T06:38:20.143Z,970.56
2018-11-12T06:39:20.187Z,970.58
2018-11-12T06:40:20.230Z,970.56
2018-11-12T06:41:20.280Z,970.56
2018-11-12T06:42:20.366Z,970.51
2018-11-12T06:43:20.486Z,970.42
2018-11-12T06:44:20.433Z,970.41
2018-11-12T06:45:20.457Z,970.45
2018-11-12T06:46:20.502Z,970.51
2018-11-12T06:47:20.677Z,970.51
2018-11-12T06:48:20.608Z,970.51
2018-11-12T06:49:20.635Z,970.54
2018-11-12T06:50:20.680Z,970.59
2018-11-12T06:51:20.749Z,970.59
2018-11-12T06:52:20.794Z,970.65
2018-11-12T06:53:20.885Z,970.57
2018-11-12T06:54:20.860Z,970.45
2018-11-12T06:55:20.904Z,970.44
2018-11-12T06:56:20.945Z,970.42
2018-11-12T06:57:21.019Z,970.47
2018-11-12T06:58:21.673Z,970.43
2018-11-12T06:59:21.081Z,970.41
2018-11-12T07:00:21.135Z,970.51
2018-11-12T07:01:21.168Z,970.53
2018-11-12T07:02:21.219Z,970.54
2018-11-12T07:03:21.288Z,970.62
2018-11-12T07:04:21.303Z,970.66
2018-11-12T07:05:21.355Z,970.62
2018-11-12T07:06:21.410Z,970.61
2018-11-12T07:07:21.437Z,970.60
2018-11-12T07:08:21.504Z,970.54
2018-11-12T07:09:21.527Z,970.54
2018-11-12T07:10:21.578Z,970.54
2018-11-12T07:11:21.617Z,970.50
2018-11-12T07:12:21.667Z,970.53
2018-11-12T07:13:21.784Z,970.59
2018-11-12T07:14:21.751Z,970.62
2018-11-12T07:15:21.793Z,970.61
2018-11-12T07:16:21.838Z,970.63
2018-11-12T07:17:21.883Z,970.66
2018-11-12T07:18:21.947Z,970.68
2018-11-12T07:19:21.993Z,970.70
2018-11-12T07:20:22.019Z,970.65
2018-11-12T07:21:22.061Z,970.56
2018-11-12T07:22:22.106Z,970.56
2018-11-12T07:23:22.149Z,970.59
2018-11-12T07:24:22.233Z,970.51
2018-11-12T07:25:22.358Z,970.43
2018-11-12T07:26:22.286Z,970.42
2018-11-12T07:27:22.343Z,970.41
2018-11-12T07:28:22.374Z,970.46
2018-11-12T07:29:22.450Z,970.44
2018-11-12T07:30:22.469Z,970.38
2018-11-12T07:31:22.533Z,970.34
2018-11-12T07:32:22.556Z,970.36
2018-11-12T07:33:22.595Z,970.46
2018-11-12T07:34:22.661Z,970.47
2018-11-12T07:35:22.692Z,970.63
2018-11-12T07:36:22.739Z,970.68
2018-11-12T07:37:22.825Z,970.75
2018-11-12T07:38:22.845Z,970.82
2018-11-12T07:39:22.872Z,970.82
2018-11-12T07:40:22.931Z,970.83
2018-11-12T07:41:22.965Z,970.79
2018-11-12T07:42:23.032Z,970.80
2018-11-12T07:43:23.062Z,970.73
2018-11-12T07:44:23.112Z,970.72
2018-11-12T07:45:23.219Z,970.74
2018-11-12T07:46:23.198Z,970.71
2018-11-12T07:47:23.255Z,970.66
2018-11-12T07:48:23.289Z,970.65
2018-11-12T07:49:23.338Z,970.70
2018-11-12T07:50:23.411Z,970.65
2018-11-12T07:51:23.490Z,970.68
2018-11-12T07:52:23.477Z,970.72
2018-11-12T07:53:23.546Z,970.71
2018-11-12T07:54:23.594Z,970.67
2018-11-12T07:55:23.627Z,970.71
2018-11-12T07:56:23.775Z,970.71
2018-11-12T07:57:23.740Z,970.77
2018-11-12T07:58:23.765Z,970.73
2018-11-12T07:59:23.814Z,970.82
2018-11-12T08:00:23.872Z,970.85
2018-11-12T08:01:24.016Z,970.85
2018-11-12T08:02:23.966Z,970.84
2018-11-12T08:03:24.053Z,970.83
2018-11-12T08:04:24.097Z,970.73
2018-11-12T08:05:24.118Z,970.68
2018-11-12T08:06:24.157Z,970.57
2018-11-12T08:07:24.203Z,970.55
2018-11-12T08:08:24.268Z,970.51
2018-11-12T08:09:24.366Z,970.48
2018-11-12T08:10:24.355Z,970.43
2018-11-12T08:11:24.396Z,970.36
2018-11-12T08:12:24.457Z,970.39
2018-11-12T08:13:24.504Z,970.39
2018-11-12T08:14:24.623Z,970.39
2018-11-12T08:15:24.605Z,970.41
2018-11-12T08:16:24.649Z,970.48
2018-11-12T08:17:24.771Z,970.53
2018-11-12T08:18:24.770Z,970.59
2018-11-12T08:19:24.792Z,970.59
2018-11-12T08:20:24.846Z,970.67
2018-11-12T08:21:24.889Z,970.65
2018-11-12T08:22:24.934Z,970.57
2018-11-12T08:23:25.012Z,970.58
2018-11-12T08:24:25.162Z,970.61
2018-11-12T08:25:25.110Z,970.70
2018-11-12T08:26:25.155Z,970.76
2018-11-12T08:27:25.205Z,970.90
2018-11-12T08:28:25.224Z,971.00
2018-11-12T08:29:25.302Z,971.04
2018-11-12T08:30:25.379Z,970.93
2018-11-12T08:31:25.387Z,970.82
2018-11-12T08:32:25.416Z,970.75
2018-11-12T08:33:25.460Z,970.80
2018-11-12T08:34:25.512Z,970.67
2018-11-12T08:35:25.583Z,970.61
2018-11-12T08:36:25.661Z,970.62
2018-11-12T08:37:25.662Z,970.61
2018-11-12T08:38:25.704Z,970.54
2018-11-12T08:39:25.770Z,970.52
2018-11-12T08:40:25.858Z,970.46
2018-11-12T08:41:25.887Z,970.50
2018-11-12T08:42:25.897Z,970.59
2018-11-12T08:43:25.966Z,970.69
2018-11-12T08:44:25.989Z,970.64
2018-11-12T08:45:26.038Z,970.65
2018-11-12T08:46:26.094Z,970.67
2018-11-12T08:47:26.135Z,970.72
2018-11-12T08:48:26.248Z,970.76
2018-11-12T08:49:26.317Z,970.81
2018-11-12T08:50:26.289Z,970.83
2018-11-12T08:51:26.322Z,970.98
2018-11-12T08:52:26.371Z,971.10
2018-11-12T08:53:26.438Z,971.17
2018-11-12T08:54:26.467Z,971.09
2018-11-12T08:55:26.535Z,970.90
2018-11-12T08:56:26.562Z,970.78
2018-11-12T08:57:26.635Z,970.74
2018-11-12T08:58:26.657Z,970.75
2018-11-12T08:59:26.802Z,970.76
2018-11-12T09:00:26.759Z,970.88
2018-11-12T09:01:26.803Z,970.99
2018-11-12T09:02:26.868Z,971.10
2018-11-12T09:03:26.897Z,971.23
2018-11-12T09:04:26.941Z,971.38
2018-11-12T09:05:26.990Z,971.38
2018-11-12T09:06:27.181Z,971.24
2018-11-12T09:07:27.138Z,971.19
2018-11-12T09:08:27.131Z,971.13
2018-11-12T09:09:27.179Z,971.06
2018-11-12T09:10:27.229Z,971.02
2018-11-12T09:11:27.299Z,971.05
2018-11-12T09:12:27.355Z,971.12
2018-11-12T09:13:27.481Z,971.08
2018-11-12T09:14:27.427Z,971.08
2018-11-12T09:15:27.483Z,970.99
2018-11-12T09:16:27.531Z,970.95
2018-11-12T09:17:27.570Z,970.95
2018-11-12T09:18:27.645Z,970.94
2018-11-12T09:19:27.734Z,971.01
2018-11-12T09:20:27.815Z,970.94
2018-11-12T09:21:27.783Z,970.96
2018-11-12T09:22:27.807Z,970.99
2018-11-12T09:23:27.890Z,971.05
2018-11-12T09:24:28.057Z,971.10
2018-11-12T09:25:27.955Z,971.22
2018-11-12T09:26:28.009Z,971.38
2018-11-12T09:27:28.050Z,971.58
2018-11-12T09:28:28.126Z,971.77
2018-11-12T09:29:28.180Z,971.97
2018-11-12T09:30:28.200Z,972.02
2018-11-12T09:31:28.455Z,971.90
2018-11-12T09:32:28.303Z,971.87
2018-11-12T09:33:28.397Z,971.91
2018-11-12T09:34:28.393Z,971.93
2018-11-12T09:35:28.451Z,971.91
2018-11-12T09:36:28.529Z,971.90
2018-11-12T09:37:28.618Z,971.90
2018-11-12T09:38:28.680Z,971.81
2018-11-12T09:39:28.681Z,971.78
2018-11-12T09:40:28.703Z,971.83
2018-11-12T09:41:28.818Z,971.86
2018-11-12T09:42:28.813Z,971.83
2018-11-12T09:43:28.862Z,971.91
2018-11-12T09:44:28.883Z,971.85
2018-11-12T09:45:28.937Z,971.84
2018-11-12T09:46:29.012Z,971.78
2018-11-12T09:47:29.027Z,971.82
2018-11-12T09:48:29.111Z,971.86
2018-11-12T09:49:29.128Z,971.81
2018-11-12T09:50:29.181Z,971.78
2018-11-12T09:51:29.226Z,971.85
2018-11-12T09:52:29.289Z,971.89
2018-11-12T09:53:29.355Z,971.83
2018-11-12T09:54:29.473Z,971.84
2018-11-12T09:55:29.498Z,971.91
2018-11-12T09:56:29.482Z,972.00
2018-11-12T09:57:29.570Z,971.98
2018-11-12T09:58:29.586Z,972.00
2018-11-12T09:59:29.657Z,972.01
2018-11-12T10:00:29.968Z,972.00
2018-11-12T10:01:30.287Z,972.00
2018-11-12T10:02:30.353Z,972.05
2018-11-12T10:03:30.682Z,972.01
2018-11-12T10:04:30.757Z,971.96
2018-11-12T10:05:31.031Z,971.91
2018-11-12T10:06:30.970Z,971.98
2018-11-12T10:07:31.709Z,972.03
2018-11-12T10:08:32.096Z,972.00
2018-11-12T10:09:31.839Z,972.00
2018-11-12T10:10:32.413Z,972.15
2018-11-12T10:11:33.860Z,972.19
2018-11-12T10:12:32.942Z,972.16
2018-11-12T10:13:31.790Z,972.14
2018-11-12T10:14:33.048Z,972.17
2018-11-12T10:15:33.680Z,972.16
2018-11-12T10:16:34.590Z,972.16
2018-11-12T10:17:32.685Z,972.20
2018-11-12T10:18:30.559Z,972.32
2018-11-12T10:19:30.634Z,972.36
2018-11-12T10:20:30.648Z,972.41
2018-11-12T10:21:30.710Z,972.49
2018-11-12T10:22:30.748Z,972.56
2018-11-12T10:23:30.793Z,972.60
2018-11-12T10:24:30.845Z,972.62
2018-11-12T10:25:30.904Z,972.58
2018-11-12T10:26:31.025Z,972.62
2018-11-12T10:27:30.996Z,972.62
2018-11-12T10:28:31.041Z,972.64
2018-11-12T10:29:31.094Z,972.66
2018-11-12T10:30:31.141Z,972.65
2018-11-12T10:31:31.221Z,972.63
2018-11-12T10:32:31.242Z,972.74
2018-11-12T10:33:31.296Z,972.72
2018-11-12T10:34:31.348Z,972.69
2018-11-12T10:35:31.423Z,972.65
2018-11-12T10:36:31.468Z,972.65
2018-11-12T10:37:31.655Z,972.69
2018-11-12T10:38:31.549Z,972.62
2018-11-12T10:39:31.608Z,972.60
2018-11-12T10:40:31.653Z,972.59
2018-11-12T10:41:31.700Z,972.59
2018-11-12T10:42:31.784Z,972.59
2018-11-12T10:43:31.815Z,972.60
2018-11-12T10:44:31.865Z,972.61
2018-11-12T10:45:31.933Z,972.57
2018-11-12T10:46:31.983Z,972.54
2018-11-12T10:47:32.034Z,972.47
2018-11-12T10:48:32.161Z,972.38
2018-11-12T10:49:32.115Z,972.29
2018-11-12T10:50:32.163Z,972.31
2018-11-12T10:51:32.213Z,972.33
2018-11-12T10:52:32.264Z,972.39
2018-11-12T10:53:32.343Z,972.42
2018-11-12T10:54:32.454Z,972.47
2018-11-12T10:55:32.673Z,972.52
2018-11-12T10:56:32.466Z,972.56
2018-11-12T10:57:32.528Z,972.48
2018-11-12T10:58:32.636Z,972.50
2018-11-12T10:59:32.638Z,972.50
2018-11-12T11:00:32.670Z,972.51
2018-11-12T11:01:32.717Z,972.53
2018-11-12T11:02:32.798Z,972.57
2018-11-12T11:03:32.823Z,972.66
2018-11-12T11:04:32.867Z,972.68
2018-11-12T11:05:32.943Z,972.71
2018-11-12T11:06:32.989Z,972.69
2018-11-12T11:07:33.028Z,972.68
2018-11-12T11:08:33.073Z,972.62
2018-11-12T11:09:33.121Z,972.54
2018-11-12T11:10:33.198Z,972.55
2018-11-12T11:11:33.222Z,972.53
2018-11-12T11:12:33.261Z,972.60
2018-11-12T11:13:33.313Z,972.60
2018-11-12T11:14:33.397Z,972.69
2018-11-12T11:15:33.588Z,972.70
2018-11-12T11:16:33.478Z,972.72
2018-11-12T11:17:33.526Z,972.75
2018-11-12T11:18:33.567Z,972.80
2018-11-12T11:19:33.678Z,972.88
2018-11-12T11:20:33.658Z,972.97
2018-11-12T11:21:33.756Z,972.93
2018-11-12T11:22:33.759Z,972.87
2018-11-12T11:23:33.809Z,972.85
2018-11-12T11:24:33.859Z,972.74
2018-11-12T11:25:33.987Z,972.73
2018-11-12T11:26:34.095Z,972.71
2018-11-12T11:27:34.008Z,972.67
2018-11-12T11:28:34.053Z,972.74
2018-11-12T11:29:34.108Z,972.75
2018-11-12T11:30:34.176Z,972.77
2018-11-12T11:31:34.206Z,972.84
2018-11-12T11:32:34.253Z,972.82
2018-11-12T11:33:34.449Z,972.79
2018-11-12T11:34:34.357Z,972.78
2018-11-12T11:35:34.409Z,972.74
2018-11-12T11:36:34.447Z,972.79
2018-11-12T11:37:34.516Z,972.83
2018-11-12T11:38:34.578Z,972.84
2018-11-12T11:39:34.596Z,972.85
2018-11-12T11:40:34.692Z,972.90
2018-11-12T11:41:34.696Z,972.89
2018-11-12T11:42:34.750Z,972.88
2018-11-12T11:43:34.817Z,972.86
2018-11-12T11:44:34.846Z,972.83
2018-11-12T11:45:34.893Z,972.80
2018-11-12T11:46:34.950Z,972.79
2018-11-12T11:47:35.141Z,972.84
2018-11-12T11:48:35.058Z,972.86
2018-11-12T11:49:35.088Z,972.85
2018-11-12T11:50:35.187Z,972.79
2018-11-12T11:51:35.191Z,972.75
2018-11-12T11:52:35.243Z,972.69
2018-11-12T11:53:35.312Z,972.64
2018-11-12T11:54:35.392Z,972.65
2018-11-12T11:55:35.382Z,972.68
2018-11-12T11:56:35.499Z,972.68
2018-11-12T11:57:35.559Z,972.69
2018-11-12T11:58:35.565Z,972.63
2018-11-12T11:59:35.605Z,972.66
2018-11-12T12:00:35.626Z,972.68
2018-11-12T12:01:35.689Z,972.67
2018-11-12T12:02:35.725Z,972.70
2018-11-12T12:03:35.776Z,972.75
2018-11-12T12:04:35.845Z,972.72
2018-11-12T12:05:35.902Z,972.73
2018-11-12T12:06:35.931Z,972.73
2018-11-12T12:07:35.982Z,972.66
2018-11-12T12:08:36.066Z,972.61
2018-11-12T12:09:36.071Z,972.56
2018-11-12T12:10:36.159Z,972.55
2018-11-12T12:11:36.176Z,972.63
2018-11-12T12:12:36.218Z,972.71
2018-11-12T12:13:36.264Z,972.78
2018-11-12T12:14:36.323Z,972.80
2018-11-12T12:15:36.385Z,972.78
2018-11-12T12:16:36.431Z,972.69
2018-11-12T12:17:36.501Z,972.62
2018-11-12T12:18:36.571Z,972.62
2018-11-12T12:19:36.558Z,972.62
2018-11-12T12:20:36.647Z,972.70
2018-11-12T12:21:36.661Z,972.75
2018-11-12T12:22:36.707Z,972.77
2018-11-12T12:23:36.758Z,972.62
2018-11-12T12:24:36.916Z,972.46
2018-11-12T12:25:36.901Z,972.33
2018-11-12T12:26:36.902Z,972.28
2018-11-12T12:27:36.969Z,972.36
2018-11-12T12:28:37.003Z,972.49